createdAt,value
2022-12-09T00:02:00.912Z,39.67
2022-12-09T00:04:45.127Z,41.70
2022-12-09T00:07:29.176Z,42.20
2022-12-09T00:10:13.433Z,39.87
2022-12-09T00:12:58.974Z,43.67
2022-12-09T00:15:43.906Z,37.53
2022-12-09T00:18:27.914Z,41.37
2022-12-09T00:21:19.859Z,48.83
2022-12-09T00:24:06.369Z,37.47
2022-12-09T00:26:50.484Z,44.93
2022-12-09T00:29:36.056Z,46.07
2022-12-09T00:32:20.301Z,42.43
2022-12-09T00:35:05.006Z,48.00
2022-12-09T00:37:50.457Z,40.47
2022-12-09T00:40:34.673Z,43.87
2022-12-09T00:43:18.592Z,51.13
2022-12-09T00:46:04.759Z,43.03
2022-12-09T00:48:48.889Z,46.27
2022-12-09T00:51:33.013Z,46.73
2022-12-09T00:54:18.255Z,51.60
2022-12-09T00:57:02.878Z,46.77
2022-12-09T00:59:46.834Z,52.53
2022-12-09T01:02:32.330Z,47.50
2022-12-09T01:05:16.870Z,50.43
2022-12-09T01:08:00.760Z,53.97
2022-12-09T01:10:45.984Z,52.53
2022-12-09T01:13:29.714Z,49.77
2022-12-09T01:16:18.038Z,46.60
2022-12-09T01:19:06.369Z,50.27
2022-12-09T01:21:50.370Z,49.30
2022-12-09T01:24:34.247Z,54.87
2022-12-09T01:27:17.908Z,56.17
2022-12-09T01:30:01.654Z,53.27
2022-12-09T01:32:47.097Z,52.10
2022-12-09T01:35:32.495Z,56.83
2022-12-09T01:38:16.507Z,56.23
2022-12-09T01:41:00.527Z,57.67
2022-12-09T01:43:44.846Z,48.40
2022-12-09T01:46:28.899Z,55.37
2022-12-09T01:49:18.271Z,54.80
2022-12-09T01:52:10.370Z,55.03
2022-12-09T01:54:55.720Z,51.00
2022-12-09T01:57:40.647Z,53.77
2022-12-09T02:00:24.759Z,52.60
2022-12-09T02:03:08.934Z,50.13
2022-12-09T02:05:53.404Z,54.93
2022-12-09T02:08:38.949Z,54.33
2022-12-09T02:11:31.962Z,45.10
2022-12-09T02:14:20.576Z,54.33
2022-12-09T02:17:25.214Z,48.03
2022-12-09T02:20:19.913Z,59.63
2022-12-09T02:23:12.817Z,70.03
2022-12-09T02:26:09.552Z,57.67
2022-12-09T02:29:23.001Z,65.13
2022-12-09T02:32:24.139Z,64.70
2022-12-09T02:35:13.063Z,72.23
2022-12-09T02:38:02.258Z,78.27
2022-12-09T02:40:51.703Z,74.50
2022-12-09T02:43:41.145Z,66.47
2022-12-09T02:46:30.861Z,79.50
2022-12-09T02:49:17.562Z,71.90
2022-12-09T02:52:04.376Z,65.07
2022-12-09T02:54:48.802Z,68.53
2022-12-09T02:57:36.056Z,64.07
2022-12-09T03:00:20.456Z,79.17
2022-12-09T03:03:06.588Z,72.20
2022-12-09T03:05:57.703Z,69.33
2022-12-09T03:08:49.109Z,71.73
2022-12-09T03:11:34.354Z,72.13
2022-12-09T03:14:22.618Z,59.03
2022-12-09T03:17:13.999Z,65.60
2022-12-09T03:20:02.117Z,61.53
2022-12-09T03:22:49.208Z,67.40
2022-12-09T03:25:39.742Z,70.07
2022-12-09T03:28:29.154Z,62.97
2022-12-09T03:31:19.125Z,65.87
2022-12-09T03:34:05.680Z,60.83
2022-12-09T03:36:53.225Z,59.57
2022-12-09T03:39:40.061Z,61.53
2022-12-09T03:42:32.482Z,57.40
2022-12-09T03:45:19.142Z,59.40
2022-12-09T03:48:03.649Z,77.70
2022-12-09T03:50:53.578Z,64.27
2022-12-09T03:53:44.468Z,66.40
2022-12-09T03:56:30.135Z,65.87
2022-12-09T03:59:17.364Z,55.77
2022-12-09T04:02:01.680Z,60.83
2022-12-09T04:04:46.137Z,56.37
2022-12-09T04:07:30.251Z,60.87
2022-12-09T04:10:14.362Z,63.47
2022-12-09T04:12:58.393Z,52.30
2022-12-09T04:15:43.706Z,53.40
2022-12-09T04:18:27.631Z,47.50
2022-12-09T04:21:14.584Z,52.13
2022-12-09T04:23:58.406Z,57.47
2022-12-09T04:26:43.306Z,49.40
2022-12-09T04:29:27.499Z,62.37
2022-12-09T04:32:12.860Z,50.13
2022-12-09T04:34:57.325Z,52.23
2022-12-09T04:37:41.383Z,47.70
2022-12-09T04:40:25.401Z,64.63
2022-12-09T04:43:09.749Z,51.47
2022-12-09T04:45:54.288Z,68.83
2022-12-09T04:48:39.851Z,44.50
2022-12-09T04:51:24.102Z,49.10
2022-12-09T04:54:08.960Z,46.97
2022-12-09T04:56:53.385Z,53.63
2022-12-09T04:59:37.436Z,53.97
2022-12-09T05:02:21.894Z,47.83
2022-12-09T05:05:08.737Z,44.40
2022-12-09T05:07:53.363Z,51.50
2022-12-09T05:10:37.753Z,35.30
2022-12-09T05:13:22.027Z,42.57
2022-12-09T05:16:13.901Z,45.50
2022-12-09T05:19:01.660Z,38.00
2022-12-09T05:21:47.577Z,43.33
2022-12-09T05:24:33.396Z,36.27
2022-12-09T05:27:17.491Z,38.37
2022-12-09T05:30:01.851Z,34.63
2022-12-09T05:32:46.793Z,44.30
2022-12-09T05:35:31.065Z,37.17
2022-12-09T05:38:16.803Z,43.47
2022-12-09T05:41:01.473Z,35.67
2022-12-09T05:43:46.510Z,28.33
2022-12-09T05:46:31.339Z,60.43
2022-12-09T05:49:15.570Z,45.57
2022-12-09T05:52:00.323Z,45.10
2022-12-09T05:54:46.012Z,48.70
2022-12-09T05:57:30.045Z,49.40
2022-12-09T06:00:15.794Z,35.27
2022-12-09T06:03:00.224Z,36.53
2022-12-09T06:05:45.145Z,45.10
2022-12-09T06:08:29.774Z,37.23
2022-12-09T06:11:17.475Z,33.10
2022-12-09T06:14:02.209Z,35.07
2022-12-09T06:16:46.718Z,34.53
2022-12-09T06:19:31.090Z,33.00
2022-12-09T06:22:15.675Z,27.07
2022-12-09T06:24:59.657Z,31.77
2022-12-09T06:27:45.119Z,35.83
2022-12-09T06:30:29.147Z,37.30
2022-12-09T06:33:37.311Z,39.10
2022-12-09T06:36:17.423Z,34.70
2022-12-09T06:39:09.964Z,31.93
2022-12-09T06:41:55.470Z,37.60
2022-12-09T06:44:41.533Z,47.43
2022-12-09T06:47:25.691Z,42.30
2022-12-09T06:50:10.957Z,43.90
2022-12-09T06:52:55.665Z,55.37
2022-12-09T06:55:39.867Z,43.63
2022-12-09T06:58:23.929Z,35.13
2022-12-09T07:01:13.938Z,63.17
2022-12-09T07:03:58.848Z,57.40
2022-12-09T07:06:45.439Z,59.60
2022-12-09T07:09:29.632Z,43.40
2022-12-09T07:12:13.827Z,56.67
2022-12-09T07:14:58.240Z,46.63
2022-12-09T07:17:43.973Z,47.40
2022-12-09T07:20:28.481Z,50.70
2022-12-09T07:23:13.733Z,45.70
2022-12-09T07:25:58.539Z,51.77
2022-12-09T07:28:44.214Z,53.17
2022-12-09T07:31:29.605Z,39.43
2022-12-09T07:34:15.174Z,38.97
2022-12-09T07:36:59.219Z,33.53
2022-12-09T07:39:43.085Z,30.47
2022-12-09T07:42:26.952Z,30.90
2022-12-09T07:45:13.277Z,26.23
2022-12-09T07:47:57.756Z,26.33
2022-12-09T07:50:43.452Z,28.27
2022-12-09T07:53:27.724Z,36.60
2022-12-09T07:56:13.404Z,29.17
2022-12-09T07:58:58.186Z,30.83
2022-12-09T08:01:42.843Z,37.27
2022-12-09T08:04:27.216Z,49.90
2022-12-09T08:07:13.699Z,36.10
2022-12-09T08:09:58.000Z,47.37
2022-12-09T08:12:41.889Z,53.33
2022-12-09T08:15:26.178Z,38.47
2022-12-09T08:18:10.380Z,39.50
2022-12-09T08:20:54.694Z,38.70
2022-12-09T08:23:42.039Z,29.93
2022-12-09T08:26:29.410Z,36.97
2022-12-09T08:29:15.303Z,36.93
2022-12-09T08:31:59.932Z,39.40
2022-12-09T08:34:44.285Z,34.07
2022-12-09T08:37:28.587Z,51.60
2022-12-09T08:40:15.464Z,37.27
2022-12-09T08:42:59.943Z,52.10
2022-12-09T08:45:44.307Z,43.07
2022-12-09T08:48:28.821Z,40.30
2022-12-09T08:51:13.489Z,39.13
2022-12-09T08:53:58.738Z,32.33
2022-12-09T08:56:47.861Z,39.53
2022-12-09T08:59:32.296Z,50.50
2022-12-09T09:02:16.430Z,55.10
2022-12-09T09:05:00.797Z,42.87
2022-12-09T09:07:47.007Z,42.70
2022-12-09T09:10:31.287Z,32.87
2022-12-09T09:13:17.004Z,37.50
2022-12-09T09:16:01.302Z,31.40
2022-12-09T09:18:45.978Z,32.90
2022-12-09T09:21:30.548Z,35.23
2022-12-09T09:24:18.232Z,30.77
2022-12-09T09:27:02.771Z,33.97
2022-12-09T09:29:48.383Z,34.07
2022-12-09T09:32:32.984Z,32.77
2022-12-09T09:35:17.228Z,37.93
2022-12-09T09:38:01.419Z,29.77
2022-12-09T09:40:45.811Z,29.50
2022-12-09T09:43:35.577Z,35.30
2022-12-09T09:46:35.021Z,86.20
2022-12-09T09:49:26.263Z,84.50
2022-12-09T09:52:17.080Z,37.40
2022-12-09T09:55:01.425Z,33.00
2022-12-09T09:57:50.507Z,32.37
2022-12-09T10:00:40.534Z,31.80
2022-12-09T10:03:37.418Z,35.17
2022-12-09T10:06:33.544Z,37.53
2022-12-09T10:09:28.372Z,62.40
2022-12-09T10:12:21.304Z,111.65
2022-12-09T10:15:11.519Z,35.47
2022-12-09T10:18:06.471Z,24.00
2022-12-09T10:20:52.136Z,32.80
2022-12-09T10:23:36.147Z,23.45
2022-12-09T10:26:24.657Z,30.40
2022-12-09T10:29:18.752Z,31.98
2022-12-09T10:32:02.912Z,33.65
2022-12-09T10:34:47.707Z,36.80
2022-12-09T10:37:36.200Z,24.92
2022-12-09T10:40:27.661Z,35.95
2022-12-09T10:43:42.521Z,29.17
2022-12-09T10:46:27.570Z,29.27
2022-12-09T10:49:20.904Z,33.00
2022-12-09T10:52:05.797Z,30.97
2022-12-09T10:54:52.328Z,26.05
2022-12-09T10:57:36.274Z,37.72
2022-12-09T11:00:31.033Z,39.35
2022-12-09T11:03:27.875Z,30.92
2022-12-09T11:06:25.207Z,36.00
2022-12-09T11:09:23.253Z,24.98
2022-12-09T11:12:18.416Z,24.42
2022-12-09T11:15:04.577Z,25.80
2022-12-09T11:17:58.599Z,22.17
2022-12-09T11:20:42.972Z,21.65
2022-12-09T11:23:28.000Z,19.33
2022-12-09T11:26:24.679Z,19.67
2022-12-09T11:29:17.804Z,25.17
2022-12-09T11:32:03.988Z,25.40
2022-12-09T11:34:48.533Z,25.65
2022-12-09T11:37:33.577Z,25.95
2022-12-09T11:40:18.291Z,25.35
2022-12-09T11:43:02.156Z,31.85
2022-12-09T11:45:47.378Z,28.35
2022-12-09T11:48:41.727Z,27.83
2022-12-09T11:51:30.159Z,24.20
2022-12-09T11:54:21.570Z,30.27
2022-12-09T11:57:07.651Z,28.38
2022-12-09T11:59:56.492Z,21.00
2022-12-09T12:02:45.468Z,23.17
2022-12-09T12:05:35.227Z,23.50
2022-12-09T12:08:26.886Z,27.20
2022-12-09T12:11:15.593Z,24.88
2022-12-09T12:14:04.921Z,29.02
2022-12-09T12:16:58.503Z,28.63
2022-12-09T12:19:52.372Z,24.73
2022-12-09T12:23:01.574Z,111.75
2022-12-09T12:25:54.988Z,69.72
2022-12-09T12:29:02.545Z,28.48
2022-12-09T12:32:16.933Z,19.42
2022-12-09T12:35:19.941Z,43.08
2022-12-09T12:38:19.031Z,28.20
2022-12-09T12:41:13.137Z,29.42
2022-12-09T12:44:26.225Z,30.20
2022-12-09T12:47:19.423Z,27.38
2022-12-09T12:50:31.995Z,27.20
2022-12-09T12:53:25.761Z,38.53
2022-12-09T12:56:14.733Z,32.40
2022-12-09T12:59:07.727Z,38.47
2022-12-09T13:01:54.656Z,38.67
2022-12-09T13:04:45.156Z,40.58
2022-12-09T13:07:37.841Z,37.40
2022-12-09T13:10:28.626Z,46.22
2022-12-09T13:13:20.687Z,47.22
2022-12-09T13:16:15.124Z,49.55
2022-12-09T13:19:07.081Z,46.60
2022-12-09T13:21:51.697Z,45.75
2022-12-09T13:24:42.375Z,47.90
2022-12-09T13:27:34.751Z,51.20
2022-12-09T13:30:22.012Z,57.47
2022-12-09T13:33:27.088Z,41.27
2022-12-09T13:36:19.513Z,38.43
2022-12-09T13:39:03.368Z,35.47
2022-12-09T13:42:06.001Z,34.13
2022-12-09T13:44:49.748Z,30.43
2022-12-09T13:47:37.596Z,31.47
2022-12-09T13:50:27.590Z,36.17
2022-12-09T13:53:27.188Z,32.43
2022-12-09T13:56:22.638Z,33.73
2022-12-09T13:59:43.619Z,32.00
2022-12-09T14:02:35.822Z,36.63
2022-12-09T14:05:23.045Z,36.67
2022-12-09T14:08:20.622Z,31.80
2022-12-09T14:11:49.347Z,30.73
2022-12-09T14:14:55.954Z,31.17
2022-12-09T14:18:02.171Z,28.67
2022-12-09T14:21:24.463Z,30.17
2022-12-09T14:24:33.828Z,36.97
2022-12-09T14:27:19.721Z,40.03
2022-12-09T14:30:26.472Z,39.03
2022-12-09T14:33:23.160Z,40.67
2022-12-09T14:36:21.378Z,31.77
2022-12-09T14:39:25.457Z,35.00
2022-12-09T14:42:14.301Z,43.33
2022-12-09T14:45:05.062Z,33.87
2022-12-09T14:47:50.320Z,40.93
2022-12-09T14:50:38.409Z,36.90
2022-12-09T14:53:24.638Z,51.53
2022-12-09T14:56:09.034Z,61.63
2022-12-09T14:58:57.032Z,43.83
2022-12-09T15:01:52.183Z,38.77
2022-12-09T15:04:43.001Z,47.50
2022-12-09T15:07:28.821Z,43.47
2022-12-09T15:10:20.921Z,48.07
2022-12-09T15:13:05.536Z,37.47
2022-12-09T15:15:49.350Z,37.53
2022-12-09T15:18:34.845Z,50.10
2022-12-09T15:21:31.191Z,50.37
2022-12-09T15:24:16.450Z,40.33
2022-12-09T15:27:02.741Z,35.37
2022-12-09T15:29:46.854Z,43.20
2022-12-09T15:32:31.766Z,32.10
2022-12-09T15:35:22.520Z,56.57
2022-12-09T15:38:10.130Z,44.43
2022-12-09T15:41:13.740Z,56.07
2022-12-09T15:44:02.325Z,29.57
2022-12-09T15:46:48.464Z,45.07
2022-12-09T15:49:36.828Z,37.67
2022-12-09T15:52:25.114Z,36.37
2022-12-09T15:55:16.198Z,37.10
2022-12-09T15:58:03.661Z,35.43
2022-12-09T16:00:50.304Z,27.90
2022-12-09T16:03:36.273Z,35.83
2022-12-09T16:06:27.628Z,32.97
2022-12-09T16:09:14.337Z,37.90
2022-12-09T16:11:59.494Z,41.30
2022-12-09T16:14:45.580Z,35.43
2022-12-09T16:17:35.076Z,35.63
2022-12-09T16:20:30.217Z,36.73
2022-12-09T16:23:22.436Z,37.03
2022-12-09T16:26:07.667Z,37.07
2022-12-09T16:28:57.991Z,45.90
2022-12-09T16:31:42.143Z,28.33
2022-12-09T16:34:28.369Z,42.87
2022-12-09T16:37:25.151Z,41.73
2022-12-09T16:40:58.169Z,39.13
2022-12-09T16:43:58.927Z,36.20
2022-12-09T16:46:42.901Z,29.67
2022-12-09T16:49:26.661Z,38.27
2022-12-09T16:52:13.421Z,38.03
2022-12-09T16:54:57.206Z,33.83
2022-12-09T16:57:40.894Z,36.43
2022-12-09T17:00:26.489Z,28.73
2022-12-09T17:03:17.926Z,35.00
2022-12-09T17:06:01.626Z,36.77
2022-12-09T17:08:45.938Z,31.77
2022-12-09T17:11:29.790Z,34.83
2022-12-09T17:14:13.560Z,37.17
2022-12-09T17:16:58.754Z,37.80
2022-12-09T17:19:42.990Z,36.90
2022-12-09T17:22:26.808Z,38.87
2022-12-09T17:25:11.047Z,36.90
2022-12-09T17:27:55.143Z,31.53
2022-12-09T17:30:39.649Z,45.50
2022-12-09T17:33:27.905Z,40.30
2022-12-09T17:36:12.468Z,41.57
2022-12-09T17:38:56.499Z,36.27
2022-12-09T17:41:40.418Z,34.17
2022-12-09T17:44:24.198Z,41.57
2022-12-09T17:47:07.990Z,36.90
2022-12-09T17:49:53.183Z,40.40
2022-12-09T17:52:37.133Z,50.53
2022-12-09T17:55:21.030Z,34.30
2022-12-09T17:58:05.057Z,43.77
2022-12-09T18:00:48.932Z,42.47
2022-12-09T18:03:55.131Z,41.63
2022-12-09T18:06:40.831Z,40.67
2022-12-09T18:09:25.642Z,44.83
2022-12-09T18:12:09.368Z,35.57
2022-12-09T18:14:53.504Z,44.43
2022-12-09T18:17:37.259Z,42.90
2022-12-09T18:20:21.283Z,32.50
2022-12-09T18:23:06.397Z,36.47
2022-12-09T18:25:50.498Z,42.27
2022-12-09T18:28:34.280Z,48.67
2022-12-09T18:31:19.867Z,41.17
2022-12-09T18:34:03.847Z,42.67
2022-12-09T18:36:47.550Z,44.73
2022-12-09T18:39:32.726Z,36.03
2022-12-09T18:42:17.795Z,46.63
2022-12-09T18:45:01.793Z,43.63
2022-12-09T18:47:47.347Z,33.50
2022-12-09T18:50:31.348Z,39.37
2022-12-09T18:53:15.479Z,40.73
2022-12-09T18:56:00.768Z,47.13
2022-12-09T18:59:05.250Z,43.67
2022-12-09T19:01:49.720Z,38.47
2022-12-09T19:04:33.974Z,43.80
2022-12-09T19:07:17.858Z,39.90
2022-12-09T19:10:01.594Z,39.63
2022-12-09T19:12:49.711Z,41.63
2022-12-09T19:15:35.482Z,50.60
2022-12-09T19:18:19.322Z,31.07
2022-12-09T19:21:09.268Z,36.80
2022-12-09T19:23:53.363Z,45.30
2022-12-09T19:26:38.183Z,40.13
2022-12-09T19:29:24.727Z,42.77
2022-12-09T19:32:29.366Z,45.13
2022-12-09T19:35:12.344Z,47.60
2022-12-09T19:38:01.070Z,41.07
2022-12-09T19:40:45.259Z,50.50
2022-12-09T19:43:29.236Z,41.20
2022-12-09T19:46:15.890Z,37.03
2022-12-09T19:49:00.040Z,40.27
2022-12-09T19:51:44.423Z,40.87
2022-12-09T19:54:29.849Z,41.33
2022-12-09T19:57:13.564Z,43.40
2022-12-09T19:59:57.583Z,44.30
2022-12-09T20:02:42.687Z,40.23
2022-12-09T20:05:26.642Z,39.70
2022-12-09T20:08:10.427Z,40.57
2022-12-09T20:10:54.114Z,39.70
2022-12-09T20:13:37.834Z,42.97
2022-12-09T20:16:23.543Z,44.93
2022-12-09T20:19:09.493Z,35.67
2022-12-09T20:21:53.267Z,40.03
2022-12-09T20:24:37.036Z,35.33
2022-12-09T20:27:21.154Z,41.60
2022-12-09T20:30:05.623Z,47.80
2022-12-09T20:32:49.649Z,45.90
2022-12-09T20:35:36.881Z,43.47
2022-12-09T20:38:20.567Z,41.80
2022-12-09T20:41:05.874Z,35.83
2022-12-09T20:43:51.042Z,42.50
2022-12-09T20:46:35.651Z,38.97
2022-12-09T20:49:25.567Z,36.97
2022-12-09T20:52:10.706Z,41.30
2022-12-09T20:54:54.505Z,44.10
2022-12-09T20:57:38.333Z,42.67
2022-12-09T21:00:22.294Z,44.50
2022-12-09T21:03:06.147Z,38.63
2022-12-09T21:05:49.941Z,40.47
2022-12-09T21:08:35.447Z,36.60
2022-12-09T21:11:20.812Z,40.33
2022-12-09T21:14:06.917Z,34.27
2022-12-09T21:16:51.467Z,45.83
2022-12-09T21:19:35.369Z,50.70
2022-12-09T21:22:19.110Z,46.33
2022-12-09T21:25:04.424Z,47.00
2022-12-09T21:27:48.318Z,51.17
2022-12-09T21:30:32.203Z,51.17
2022-12-09T21:33:15.950Z,50.80
2022-12-09T21:36:01.126Z,49.43
2022-12-09T21:38:45.626Z,42.57
2022-12-09T21:41:34.033Z,44.60
2022-12-09T21:44:20.111Z,47.33
2022-12-09T21:47:04.075Z,46.80
2022-12-09T21:49:48.109Z,41.87
2022-12-09T21:52:32.053Z,43.57
2022-12-09T21:55:16.090Z,46.73
2022-12-09T21:58:01.578Z,43.97
2022-12-09T22:00:45.643Z,43.27
2022-12-09T22:03:29.547Z,41.67
2022-12-09T22:06:14.106Z,45.70
2022-12-09T22:08:59.975Z,40.90
2022-12-09T22:11:44.129Z,39.70
2022-12-09T22:14:29.638Z,37.40
2022-12-09T22:17:13.657Z,35.93
2022-12-09T22:20:25.674Z,41.50
2022-12-09T22:23:01.760Z,37.13
2022-12-09T22:25:45.927Z,36.53
2022-12-09T22:28:30.584Z,32.53
2022-12-09T22:31:18.135Z,34.80
2022-12-09T22:34:04.651Z,48.83
2022-12-09T22:36:49.605Z,35.93
2022-12-09T22:39:33.574Z,37.50
2022-12-09T22:42:17.615Z,46.10
2022-12-09T22:45:01.737Z,38.27
2022-12-09T22:47:48.238Z,34.83
2022-12-09T22:50:32.369Z,36.57
2022-12-09T22:53:16.428Z,41.73
2022-12-09T22:56:00.551Z,39.47
2022-12-09T22:58:44.536Z,46.37
2022-12-09T23:01:31.061Z,41.53
2022-12-09T23:04:18.273Z,46.47
2022-12-09T23:07:02.158Z,47.27
2022-12-09T23:09:46.140Z,44.27
2022-12-09T23:12:30.088Z,41.27
2022-12-09T23:15:14.087Z,39.43
2022-12-09T23:17:58.620Z,36.83
2022-12-09T23:20:44.013Z,37.87
2022-12-09T23:23:28.003Z,38.87
2022-12-09T23:26:14.421Z,38.70
2022-12-09T23:28:59.906Z,35.33
2022-12-09T23:31:44.487Z,40.37
2022-12-09T23:34:28.386Z,40.47
2022-12-09T23:37:14.462Z,37.07
2022-12-09T23:39:58.357Z,37.60
2022-12-09T23:42:42.351Z,32.97
2022-12-09T23:45:26.375Z,39.73
2022-12-09T23:48:10.319Z,31.70
2022-12-09T23:50:55.043Z,32.07
2022-12-09T23:53:41.612Z,36.97
2022-12-09T23:56:27.474Z,31.23
2022-12-09T23:59:14.517Z,37.07
